sensor_id;sensor_type;location;lat;lon;timestamp;P1;durP1;ratioP1;P2;durP2;ratioP2
84315;SDS011;74496;52.236;5.164;2024-02-14T00:01:55;4.47;;;4.07;;
84315;SDS011;74496;52.236;5.164;2024-02-14T00:04:21;5.55;;;4.13;;
84315;SDS011;74496;52.236;5.164;2024-02-14T00:06:48;4.63;;;4.22;;
84315;SDS011;74496;52.236;5.164;2024-02-14T00:09:15;4.30;;;3.90;;
84315;SDS011;74496;52.236;5.164;2024-02-14T00:11:41;4.78;;;4.35;;
84315;SDS011;74496;52.236;5.164;2024-02-14T00:14:10;4.68;;;3.80;;
84315;SDS011;74496;52.236;5.164;2024-02-14T00:16:36;4.07;;;3.78;;
84315;SDS011;74496;52.236;5.164;2024-02-14T00:19:04;4.18;;;3.88;;
84315;SDS011;74496;52.236;5.164;2024-02-14T00:21:31;4.93;;;4.43;;
84315;SDS011;74496;52.236;5.164;2024-02-14T00:23:59;4.22;;;4.00;;
84315;SDS011;74496;52.236;5.164;2024-02-14T00:26:26;3.90;;;3.58;;
84315;SDS011;74496;52.236;5.164;2024-02-14T00:28:53;4.13;;;3.83;;
84315;SDS011;74496;52.236;5.164;2024-02-14T00:31:21;6.93;;;5.15;;
84315;SDS011;74496;52.236;5.164;2024-02-14T00:33:48;4.50;;;4.13;;
84315;SDS011;74496;52.236;5.164;2024-02-14T00:36:15;5.38;;;4.63;;
84315;SDS011;74496;52.236;5.164;2024-02-14T00:38:41;4.82;;;4.30;;
84315;SDS011;74496;52.236;5.164;2024-02-14T00:41:10;4.93;;;4.63;;
84315;SDS011;74496;52.236;5.164;2024-02-14T00:43:37;5.25;;;4.80;;
84315;SDS011;74496;52.236;5.164;2024-02-14T00:46:03;4.90;;;4.60;;
84315;SDS011;74496;52.236;5.164;2024-02-14T00:48:32;12.73;;;5.22;;
84315;SDS011;74496;52.236;5.164;2024-02-14T00:50:59;6.68;;;4.90;;
84315;SDS011;74496;52.236;5.164;2024-02-14T00:53:26;6.07;;;5.50;;
84315;SDS011;74496;52.236;5.164;2024-02-14T00:55:52;5.63;;;5.03;;
84315;SDS011;74496;52.236;5.164;2024-02-14T00:58:19;5.90;;;5.30;;
84315;SDS011;74496;52.236;5.164;2024-02-14T01:00:46;5.90;;;4.97;;
84315;SDS011;74496;52.236;5.164;2024-02-14T01:03:13;6.00;;;5.35;;
84315;SDS011;74496;52.236;5.164;2024-02-14T01:05:42;5.90;;;4.63;;
84315;SDS011;74496;52.236;5.164;2024-02-14T01:08:08;4.47;;;4.18;;
84315;SDS011;74496;52.236;5.164;2024-02-14T01:10:35;6.00;;;5.50;;
84315;SDS011;74496;52.236;5.164;2024-02-14T01:13:02;5.03;;;4.63;;
84315;SDS011;74496;52.236;5.164;2024-02-14T01:15:29;5.53;;;4.95;;
84315;SDS011;74496;52.236;5.164;2024-02-14T01:17:55;6.47;;;5.97;;
84315;SDS011;74496;52.236;5.164;2024-02-14T01:20:23;5.22;;;4.72;;
84315;SDS011;74496;52.236;5.164;2024-02-14T01:22:51;6.33;;;5.73;;
84315;SDS011;74496;52.236;5.164;2024-02-14T01:25:17;5.38;;;4.97;;
84315;SDS011;74496;52.236;5.164;2024-02-14T01:27:44;6.55;;;5.40;;
84315;SDS011;74496;52.236;5.164;2024-02-14T01:30:11;5.93;;;5.43;;
84315;SDS011;74496;52.236;5.164;2024-02-14T01:32:38;4.28;;;3.88;;
84315;SDS011;74496;52.236;5.164;2024-02-14T01:35:05;5.83;;;5.33;;
84315;SDS011;74496;52.236;5.164;2024-02-14T01:37:33;6.72;;;5.38;;
84315;SDS011;74496;52.236;5.164;2024-02-14T01:40:01;6.40;;;5.53;;
84315;SDS011;74496;52.236;5.164;2024-02-14T01:42:28;6.97;;;5.57;;
84315;SDS011;74496;52.236;5.164;2024-02-14T01:44:55;5.53;;;4.85;;
84315;SDS011;74496;52.236;5.164;2024-02-14T01:47:21;5.37;;;4.97;;
84315;SDS011;74496;52.236;5.164;2024-02-14T01:49:48;6.38;;;5.28;;
84315;SDS011;74496;52.236;5.164;2024-02-14T01:52:15;5.75;;;5.30;;
84315;SDS011;74496;52.236;5.164;2024-02-14T01:54:41;7.72;;;6.65;;
84315;SDS011;74496;52.236;5.164;2024-02-14T01:57:11;6.10;;;5.50;;
84315;SDS011;74496;52.236;5.164;2024-02-14T01:59:38;6.00;;;5.50;;
84315;SDS011;74496;52.236;5.164;2024-02-14T02:02:05;9.88;;;5.82;;
84315;SDS011;74496;52.236;5.164;2024-02-14T02:04:33;8.82;;;5.95;;
84315;SDS011;74496;52.236;5.164;2024-02-14T02:07:00;8.27;;;6.13;;
84315;SDS011;74496;52.236;5.164;2024-02-14T02:09:28;6.70;;;5.30;;
84315;SDS011;74496;52.236;5.164;2024-02-14T02:11:56;5.97;;;5.33;;
84315;SDS011;74496;52.236;5.164;2024-02-14T02:14:24;5.78;;;5.30;;
84315;SDS011;74496;52.236;5.164;2024-02-14T02:16:51;6.88;;;5.88;;
84315;SDS011;74496;52.236;5.164;2024-02-14T02:19:18;6.47;;;5.18;;
84315;SDS011;74496;52.236;5.164;2024-02-14T02:21:45;6.15;;;5.60;;
84315;SDS011;74496;52.236;5.164;2024-02-14T02:24:13;5.40;;;4.90;;
84315;SDS011;74496;52.236;5.164;2024-02-14T02:26:40;5.30;;;4.90;;
84315;SDS011;74496;52.236;5.164;2024-02-14T02:29:07;6.68;;;6.07;;
84315;SDS011;74496;52.236;5.164;2024-02-14T02:31:33;5.30;;;4.90;;
84315;SDS011;74496;52.236;5.164;2024-02-14T02:34:00;5.00;;;4.60;;
84315;SDS011;74496;52.236;5.164;2024-02-14T02:36:27;5.80;;;4.83;;
84315;SDS011;74496;52.236;5.164;2024-02-14T02:38:55;5.00;;;4.70;;
84315;SDS011;74496;52.236;5.164;2024-02-14T02:41:24;5.45;;;4.70;;
84315;SDS011;74496;52.236;5.164;2024-02-14T02:43:52;7.82;;;4.68;;
84315;SDS011;74496;52.236;5.164;2024-02-14T02:46:19;5.43;;;5.00;;
84315;SDS011;74496;52.236;5.164;2024-02-14T02:48:47;5.33;;;4.83;;
84315;SDS011;74496;52.236;5.164;2024-02-14T02:51:15;4.78;;;4.38;;
84315;SDS011;74496;52.236;5.164;2024-02-14T02:53:42;4.47;;;4.18;;
84315;SDS011;74496;52.236;5.164;2024-02-14T02:56:09;4.18;;;3.58;;
84315;SDS011;74496;52.236;5.164;2024-02-14T02:58:39;4.25;;;3.67;;
84315;SDS011;74496;52.236;5.164;2024-02-14T03:01:07;4.70;;;3.83;;
84315;SDS011;74496;52.236;5.164;2024-02-14T03:03:34;3.92;;;3.63;;
84315;SDS011;74496;52.236;5.164;2024-02-14T03:06:01;3.92;;;3.63;;
84315;SDS011;74496;52.236;5.164;2024-02-14T03:08:29;3.65;;;3.35;;
84315;SDS011;74496;52.236;5.164;2024-02-14T03:11:02;3.70;;;3.40;;
84315;SDS011;74496;52.236;5.164;2024-02-14T03:13:30;4.00;;;3.70;;
84315;SDS011;74496;52.236;5.164;2024-02-14T03:15:58;3.70;;;3.13;;
84315;SDS011;74496;52.236;5.164;2024-02-14T03:18:25;4.80;;;3.60;;
84315;SDS011;74496;52.236;5.164;2024-02-14T03:20:52;4.25;;;3.95;;
84315;SDS011;74496;52.236;5.164;2024-02-14T03:23:19;4.50;;;4.20;;
84315;SDS011;74496;52.236;5.164;2024-02-14T03:25:45;4.67;;;4.27;;
84315;SDS011;74496;52.236;5.164;2024-02-14T03:28:13;4.25;;;3.88;;
84315;SDS011;74496;52.236;5.164;2024-02-14T03:30:40;5.47;;;5.07;;
84315;SDS011;74496;52.236;5.164;2024-02-14T03:33:08;5.95;;;5.47;;
84315;SDS011;74496;52.236;5.164;2024-02-14T03:35:34;5.10;;;4.78;;
84315;SDS011;74496;52.236;5.164;2024-02-14T03:38:01;8.07;;;5.77;;
84315;SDS011;74496;52.236;5.164;2024-02-14T03:40:28;6.78;;;5.60;;
84315;SDS011;74496;52.236;5.164;2024-02-14T03:42:56;6.88;;;6.18;;
84315;SDS011;74496;52.236;5.164;2024-02-14T03:45:23;10.02;;;6.15;;
84315;SDS011;74496;52.236;5.164;2024-02-14T03:47:50;7.38;;;6.60;;
84315;SDS011;74496;52.236;5.164;2024-02-14T03:50:18;8.00;;;7.00;;
84315;SDS011;74496;52.236;5.164;2024-02-14T03:52:44;6.30;;;5.82;;
84315;SDS011;74496;52.236;5.164;2024-02-14T03:55:11;8.13;;;7.32;;
84315;SDS011;74496;52.236;5.164;2024-02-14T03:57:39;8.25;;;6.65;;
84315;SDS011;74496;52.236;5.164;2024-02-14T04:00:07;11.05;;;7.30;;
84315;SDS011;74496;52.236;5.164;2024-02-14T04:02:38;14.80;;;8.23;;
84315;SDS011;74496;52.236;5.164;2024-02-14T04:05:05;11.55;;;7.65;;
84315;SDS011;74496;52.236;5.164;2024-02-14T04:07:34;10.95;;;8.00;;
84315;SDS011;74496;52.236;5.164;2024-02-14T04:10:02;15.90;;;7.90;;
84315;SDS011;74496;52.236;5.164;2024-02-14T04:12:29;17.50;;;8.13;;
84315;SDS011;74496;52.236;5.164;2024-02-14T04:14:56;11.90;;;7.37;;
84315;SDS011;74496;52.236;5.164;2024-02-14T04:17:22;10.30;;;7.65;;
84315;SDS011;74496;52.236;5.164;2024-02-14T04:19:49;11.38;;;7.90;;
84315;SDS011;74496;52.236;5.164;2024-02-14T04:22:16;14.50;;;7.63;;
84315;SDS011;74496;52.236;5.164;2024-02-14T04:24:44;13.52;;;8.35;;
84315;SDS011;74496;52.236;5.164;2024-02-14T04:27:11;17.77;;;8.60;;
84315;SDS011;74496;52.236;5.164;2024-02-14T04:29:38;11.45;;;7.05;;
84315;SDS011;74496;52.236;5.164;2024-02-14T04:32:04;10.80;;;6.97;;
84315;SDS011;74496;52.236;5.164;2024-02-14T04:34:31;14.23;;;7.72;;
84315;SDS011;74496;52.236;5.164;2024-02-14T04:36:58;19.58;;;9.18;;
84315;SDS011;74496;52.236;5.164;2024-02-14T04:39:25;12.77;;;7.77;;
84315;SDS011;74496;52.236;5.164;2024-02-14T04:41:53;14.10;;;7.75;;
84315;SDS011;74496;52.236;5.164;2024-02-14T04:44:19;20.67;;;9.02;;
84315;SDS011;74496;52.236;5.164;2024-02-14T04:46:46;15.63;;;7.38;;
84315;SDS011;74496;52.236;5.164;2024-02-14T04:49:13;17.33;;;8.80;;
84315;SDS011;74496;52.236;5.164;2024-02-14T04:51:40;17.50;;;9.43;;
84315;SDS011;74496;52.236;5.164;2024-02-14T04:54:08;17.08;;;9.23;;
84315;SDS011;74496;52.236;5.164;2024-02-14T04:56:35;16.75;;;8.90;;
84315;SDS011;74496;52.236;5.164;2024-02-14T04:59:03;14.00;;;8.50;;
84315;SDS011;74496;52.236;5.164;2024-02-14T05:01:30;19.00;;;8.85;;
84315;SDS011;74496;52.236;5.164;2024-02-14T05:03:57;15.80;;;7.97;;
84315;SDS011;74496;52.236;5.164;2024-02-14T05:06:23;25.77;;;9.73;;
84315;SDS011;74496;52.236;5.164;2024-02-14T05:08:50;15.07;;;8.35;;
84315;SDS011;74496;52.236;5.164;2024-02-14T05:11:18;20.42;;;9.05;;
84315;SDS011;74496;52.236;5.164;2024-02-14T05:13:45;9.90;;;8.07;;
84315;SDS011;74496;52.236;5.164;2024-02-14T05:16:17;20.00;;;9.20;;
84315;SDS011;74496;52.236;5.164;2024-02-14T05:18:44;18.80;;;9.45;;
84315;SDS011;74496;52.236;5.164;2024-02-14T05:21:11;17.85;;;9.27;;
84315;SDS011;74496;52.236;5.164;2024-02-14T05:23:38;15.00;;;9.02;;
84315;SDS011;74496;52.236;5.164;2024-02-14T05:26:05;14.88;;;9.25;;
84315;SDS011;74496;52.236;5.164;2024-02-14T05:28:32;13.53;;;9.23;;
84315;SDS011;74496;52.236;5.164;2024-02-14T05:30:59;13.80;;;9.55;;
84315;SDS011;74496;52.236;5.164;2024-02-14T05:33:27;19.50;;;10.65;;
84315;SDS011;74496;52.236;5.164;2024-02-14T05:35:54;14.70;;;9.82;;
84315;SDS011;74496;52.236;5.164;2024-02-14T05:38:21;15.35;;;10.55;;
84315;SDS011;74496;52.236;5.164;2024-02-14T05:40:48;24.73;;;10.90;;
84315;SDS011;74496;52.236;5.164;2024-02-14T05:43:15;16.05;;;10.10;;
84315;SDS011;74496;52.236;5.164;2024-02-14T05:45:43;12.00;;;10.45;;
84315;SDS011;74496;52.236;5.164;2024-02-14T05:48:10;18.10;;;10.43;;
84315;SDS011;74496;52.236;5.164;2024-02-14T05:50:38;15.32;;;10.88;;
84315;SDS011;74496;52.236;5.164;2024-02-14T05:53:04;24.00;;;11.63;;
84315;SDS011;74496;52.236;5.164;2024-02-14T05:55:31;21.90;;;12.20;;
84315;SDS011;74496;52.236;5.164;2024-02-14T05:57:58;15.57;;;11.32;;
84315;SDS011;74496;52.236;5.164;2024-02-14T06:00:25;15.77;;;10.75;;
84315;SDS011;74496;52.236;5.164;2024-02-14T06:02:55;14.70;;;10.68;;
84315;SDS011;74496;52.236;5.164;2024-02-14T06:05:22;15.33;;;10.23;;
84315;SDS011;74496;52.236;5.164;2024-02-14T06:07:50;15.20;;;10.40;;
84315;SDS011;74496;52.236;5.164;2024-02-14T06:10:16;16.27;;;10.80;;
84315;SDS011;74496;52.236;5.164;2024-02-14T06:12:44;19.35;;;10.77;;
84315;SDS011;74496;52.236;5.164;2024-02-14T06:15:13;13.90;;;8.60;;
84315;SDS011;74496;52.236;5.164;2024-02-14T06:17:39;13.53;;;7.80;;
84315;SDS011;74496;52.236;5.164;2024-02-14T06:20:06;17.27;;;9.88;;
84315;SDS011;74496;52.236;5.164;2024-02-14T06:22:34;12.57;;;11.25;;
84315;SDS011;74496;52.236;5.164;2024-02-14T06:25:02;16.05;;;11.77;;
84315;SDS011;74496;52.236;5.164;2024-02-14T06:27:31;15.48;;;10.98;;
84315;SDS011;74496;52.236;5.164;2024-02-14T06:29:58;15.80;;;10.17;;
84315;SDS011;74496;52.236;5.164;2024-02-14T06:32:26;16.15;;;12.38;;
84315;SDS011;74496;52.236;5.164;2024-02-14T06:34:53;17.38;;;12.23;;
84315;SDS011;74496;52.236;5.164;2024-02-14T06:37:20;15.95;;;12.60;;
84315;SDS011;74496;52.236;5.164;2024-02-14T06:39:47;11.05;;;9.90;;
84315;SDS011;74496;52.236;5.164;2024-02-14T06:42:16;16.00;;;12.37;;
84315;SDS011;74496;52.236;5.164;2024-02-14T06:44:43;13.05;;;11.70;;
84315;SDS011;74496;52.236;5.164;2024-02-14T06:47:10;10.40;;;9.35;;
84315;SDS011;74496;52.236;5.164;2024-02-14T06:49:37;15.27;;;11.73;;
84315;SDS011;74496;52.236;5.164;2024-02-14T06:52:04;12.73;;;10.85;;
84315;SDS011;74496;52.236;5.164;2024-02-14T06:54:31;12.40;;;10.73;;
84315;SDS011;74496;52.236;5.164;2024-02-14T06:56:58;12.40;;;11.27;;
84315;SDS011;74496;52.236;5.164;2024-02-14T06:59:26;21.90;;;12.05;;
84315;SDS011;74496;52.236;5.164;2024-02-14T07:01:53;14.48;;;12.38;;
84315;SDS011;74496;52.236;5.164;2024-02-14T07:04:20;14.88;;;13.07;;
84315;SDS011;74496;52.236;5.164;2024-02-14T07:06:50;17.57;;;13.10;;
84315;SDS011;74496;52.236;5.164;2024-02-14T07:09:18;18.95;;;13.13;;
84315;SDS011;74496;52.236;5.164;2024-02-14T07:11:44;16.25;;;12.00;;
84315;SDS011;74496;52.236;5.164;2024-02-14T07:14:11;16.77;;;12.98;;
84315;SDS011;74496;52.236;5.164;2024-02-14T07:16:40;18.60;;;14.73;;
84315;SDS011;74496;52.236;5.164;2024-02-14T07:19:06;19.60;;;14.23;;
84315;SDS011;74496;52.236;5.164;2024-02-14T07:21:33;16.05;;;13.63;;
84315;SDS011;74496;52.236;5.164;2024-02-14T07:24:00;23.33;;;16.05;;
84315;SDS011;74496;52.236;5.164;2024-02-14T07:26:26;25.58;;;18.35;;
84315;SDS011;74496;52.236;5.164;2024-02-14T07:28:53;20.60;;;18.30;;
84315;SDS011;74496;52.236;5.164;2024-02-14T07:31:19;22.40;;;16.27;;
84315;SDS011;74496;52.236;5.164;2024-02-14T07:33:48;31.38;;;17.20;;
84315;SDS011;74496;52.236;5.164;2024-02-14T07:36:18;27.15;;;18.75;;
84315;SDS011;74496;52.236;5.164;2024-02-14T07:38:45;22.00;;;17.80;;
84315;SDS011;74496;52.236;5.164;2024-02-14T07:41:12;24.33;;;17.75;;
84315;SDS011;74496;52.236;5.164;2024-02-14T07:43:38;19.03;;;15.23;;
84315;SDS011;74496;52.236;5.164;2024-02-14T07:46:05;21.67;;;16.60;;
84315;SDS011;74496;52.236;5.164;2024-02-14T07:48:32;25.45;;;16.88;;
84315;SDS011;74496;52.236;5.164;2024-02-14T07:51:00;19.33;;;14.05;;
84315;SDS011;74496;52.236;5.164;2024-02-14T07:53:27;25.75;;;16.63;;
84315;SDS011;74496;52.236;5.164;2024-02-14T07:55:53;21.00;;;15.97;;
84315;SDS011;74496;52.236;5.164;2024-02-14T07:58:20;24.67;;;17.60;;
84315;SDS011;74496;52.236;5.164;2024-02-14T08:00:47;20.85;;;17.00;;
84315;SDS011;74496;52.236;5.164;2024-02-14T08:03:14;23.35;;;16.40;;
84315;SDS011;74496;52.236;5.164;2024-02-14T08:05:40;26.40;;;17.52;;
84315;SDS011;74496;52.236;5.164;2024-02-14T08:08:09;19.87;;;17.00;;
84315;SDS011;74496;52.236;5.164;2024-02-14T08:10:35;21.70;;;14.90;;
84315;SDS011;74496;52.236;5.164;2024-02-14T08:13:02;24.05;;;15.57;;
84315;SDS011;74496;52.236;5.164;2024-02-14T08:15:32;17.35;;;14.73;;
84315;SDS011;74496;52.236;5.164;2024-02-14T08:17:58;16.98;;;14.10;;
84315;SDS011;74496;52.236;5.164;2024-02-14T08:20:25;15.20;;;13.40;;
84315;SDS011;74496;52.236;5.164;2024-02-14T08:22:52;17.90;;;13.55;;
84315;SDS011;74496;52.236;5.164;2024-02-14T08:25:20;15.15;;;12.93;;
84315;SDS011;74496;52.236;5.164;2024-02-14T08:27:46;14.82;;;13.32;;
84315;SDS011;74496;52.236;5.164;2024-02-14T08:30:13;16.27;;;12.63;;
84315;SDS011;74496;52.236;5.164;2024-02-14T08:32:40;11.80;;;10.60;;
84315;SDS011;74496;52.236;5.164;2024-02-14T08:35:07;10.70;;;9.63;;
84315;SDS011;74496;52.236;5.164;2024-02-14T08:37:35;15.25;;;13.05;;
84315;SDS011;74496;52.236;5.164;2024-02-14T08:40:03;16.27;;;13.02;;
84315;SDS011;74496;52.236;5.164;2024-02-14T08:42:33;13.55;;;12.15;;
84315;SDS011;74496;52.236;5.164;2024-02-14T08:45:00;11.63;;;10.47;;
84315;SDS011;74496;52.236;5.164;2024-02-14T08:47:27;13.93;;;11.38;;
84315;SDS011;74496;52.236;5.164;2024-02-14T08:49:53;13.95;;;10.30;;
84315;SDS011;74496;52.236;5.164;2024-02-14T08:52:20;13.20;;;10.82;;
84315;SDS011;74496;52.236;5.164;2024-02-14T08:54:46;12.13;;;10.85;;
84315;SDS011;74496;52.236;5.164;2024-02-14T08:57:13;11.83;;;10.63;;
84315;SDS011;74496;52.236;5.164;2024-02-14T08:59:41;9.48;;;8.57;;
84315;SDS011;74496;52.236;5.164;2024-02-14T09:02:09;8.65;;;7.85;;
84315;SDS011;74496;52.236;5.164;2024-02-14T09:04:36;8.55;;;7.82;;
84315;SDS011;74496;52.236;5.164;2024-02-14T09:07:02;8.02;;;7.35;;
84315;SDS011;74496;52.236;5.164;2024-02-14T09:09:30;6.87;;;6.27;;
84315;SDS011;74496;52.236;5.164;2024-02-14T09:11:56;4.95;;;4.55;;
84315;SDS011;74496;52.236;5.164;2024-02-14T09:14:27;4.97;;;4.57;;
84315;SDS011;74496;52.236;5.164;2024-02-14T09:16:55;4.50;;;4.20;;
84315;SDS011;74496;52.236;5.164;2024-02-14T09:19:22;4.20;;;3.90;;
84315;SDS011;74496;52.236;5.164;2024-02-14T09:21:50;3.80;;;3.10;;
84315;SDS011;74496;52.236;5.164;2024-02-14T09:24:17;6.30;;;4.10;;
84315;SDS011;74496;52.236;5.164;2024-02-14T09:26:43;5.22;;;3.85;;
84315;SDS011;74496;52.236;5.164;2024-02-14T09:29:10;4.10;;;3.80;;
84315;SDS011;74496;52.236;5.164;2024-02-14T09:31:37;3.92;;;3.70;;
84315;SDS011;74496;52.236;5.164;2024-02-14T09:34:05;3.90;;;3.50;;
84315;SDS011;74496;52.236;5.164;2024-02-14T09:36:31;4.18;;;3.80;;
84315;SDS011;74496;52.236;5.164;2024-02-14T09:38:59;3.67;;;3.38;;
84315;SDS011;74496;52.236;5.164;2024-02-14T09:41:29;4.10;;;3.80;;
84315;SDS011;74496;52.236;5.164;2024-02-14T09:43:59;3.42;;;3.17;;
84315;SDS011;74496;52.236;5.164;2024-02-14T09:46:26;4.03;;;3.83;;
84315;SDS011;74496;52.236;5.164;2024-02-14T09:48:55;4.63;;;4.18;;
84315;SDS011;74496;52.236;5.164;2024-02-14T09:51:26;4.85;;;4.47;;
84315;SDS011;74496;52.236;5.164;2024-02-14T09:53:54;5.50;;;5.00;;
84315;SDS011;74496;52.236;5.164;2024-02-14T09:56:21;5.47;;;4.70;;
84315;SDS011;74496;52.236;5.164;2024-02-14T09:58:48;8.13;;;6.00;;
84315;SDS011;74496;52.236;5.164;2024-02-14T10:01:24;6.65;;;6.05;;
84315;SDS011;74496;52.236;5.164;2024-02-14T10:03:52;6.38;;;5.88;;
84315;SDS011;74496;52.236;5.164;2024-02-14T10:06:20;6.68;;;6.00;;
84315;SDS011;74496;52.236;5.164;2024-02-14T10:08:50;6.40;;;5.90;;
84315;SDS011;74496;52.236;5.164;2024-02-14T10:11:18;8.40;;;6.53;;
84315;SDS011;74496;52.236;5.164;2024-02-14T10:13:46;9.60;;;6.10;;
84315;SDS011;74496;52.236;5.164;2024-02-14T10:16:15;8.60;;;5.20;;
84315;SDS011;74496;52.236;5.164;2024-02-14T10:18:43;6.47;;;5.90;;
84315;SDS011;74496;52.236;5.164;2024-02-14T10:21:14;5.63;;;4.45;;
84315;SDS011;74496;52.236;5.164;2024-02-14T10:23:42;5.80;;;4.50;;
84315;SDS011;74496;52.236;5.164;2024-02-14T10:26:11;6.82;;;4.80;;
84315;SDS011;74496;52.236;5.164;2024-02-14T10:28:40;5.30;;;4.82;;
84315;SDS011;74496;52.236;5.164;2024-02-14T10:31:07;6.13;;;4.60;;
84315;SDS011;74496;52.236;5.164;2024-02-14T10:33:35;5.75;;;4.00;;
84315;SDS011;74496;52.236;5.164;2024-02-14T10:36:02;7.33;;;4.57;;
84315;SDS011;74496;52.236;5.164;2024-02-14T10:38:33;4.03;;;3.72;;
84315;SDS011;74496;52.236;5.164;2024-02-14T10:41:01;4.18;;;3.85;;
84315;SDS011;74496;52.236;5.164;2024-02-14T10:43:29;3.78;;;3.45;;
84315;SDS011;74496;52.236;5.164;2024-02-14T10:45:59;6.40;;;3.75;;
84315;SDS011;74496;52.236;5.164;2024-02-14T10:48:31;3.90;;;3.60;;
84315;SDS011;74496;52.236;5.164;2024-02-14T10:51:01;4.22;;;3.00;;
84315;SDS011;74496;52.236;5.164;2024-02-14T10:53:31;3.90;;;3.53;;
84315;SDS011;74496;52.236;5.164;2024-02-14T10:56:00;3.92;;;3.63;;
84315;SDS011;74496;52.236;5.164;2024-02-14T10:58:30;3.67;;;3.22;;
84315;SDS011;74496;52.236;5.164;2024-02-14T11:01:01;4.07;;;3.67;;
84315;SDS011;74496;52.236;5.164;2024-02-14T11:03:28;6.50;;;3.50;;
84315;SDS011;74496;52.236;5.164;2024-02-14T11:05:56;6.47;;;3.67;;
84315;SDS011;74496;52.236;5.164;2024-02-14T11:08:29;3.92;;;3.35;;
84315;SDS011;74496;52.236;5.164;2024-02-14T11:10:58;5.25;;;3.25;;
84315;SDS011;74496;52.236;5.164;2024-02-14T11:13:26;3.53;;;3.27;;
84315;SDS011;74496;52.236;5.164;2024-02-14T11:15:55;6.25;;;3.70;;
84315;SDS011;74496;52.236;5.164;2024-02-14T11:18:24;3.40;;;3.10;;
84315;SDS011;74496;52.236;5.164;2024-02-14T11:20:53;2.97;;;2.78;;
84315;SDS011;74496;52.236;5.164;2024-02-14T11:23:23;4.30;;;3.45;;
84315;SDS011;74496;52.236;5.164;2024-02-14T11:25:58;3.10;;;2.80;;
84315;SDS011;74496;52.236;5.164;2024-02-14T11:28:26;3.17;;;2.97;;
84315;SDS011;74496;52.236;5.164;2024-02-14T11:30:52;2.63;;;2.42;;
84315;SDS011;74496;52.236;5.164;2024-02-14T11:33:27;4.97;;;3.60;;
84315;SDS011;74496;52.236;5.164;2024-02-14T11:35:55;4.00;;;3.50;;
84315;SDS011;74496;52.236;5.164;2024-02-14T11:38:22;4.17;;;3.87;;
84315;SDS011;74496;52.236;5.164;2024-02-14T11:40:51;3.78;;;3.33;;
84315;SDS011;74496;52.236;5.164;2024-02-14T11:43:19;3.83;;;3.53;;
84315;SDS011;74496;52.236;5.164;2024-02-14T11:45:46;3.47;;;3.28;;
84315;SDS011;74496;52.236;5.164;2024-02-14T11:48:15;4.10;;;3.80;;
84315;SDS011;74496;52.236;5.164;2024-02-14T11:50:44;4.23;;;3.93;;
84315;SDS011;74496;52.236;5.164;2024-02-14T11:53:11;4.68;;;4.00;;
84315;SDS011;74496;52.236;5.164;2024-02-14T11:55:40;3.28;;;3.08;;
84315;SDS011;74496;52.236;5.164;2024-02-14T11:58:08;3.67;;;3.33;;
84315;SDS011;74496;52.236;5.164;2024-02-14T12:00:36;4.80;;;4.00;;
84315;SDS011;74496;52.236;5.164;2024-02-14T12:03:05;3.90;;;3.57;;
84315;SDS011;74496;52.236;5.164;2024-02-14T12:05:33;3.78;;;3.47;;
84315;SDS011;74496;52.236;5.164;2024-02-14T12:08:02;5.40;;;4.05;;
84315;SDS011;74496;52.236;5.164;2024-02-14T12:10:31;4.35;;;3.95;;
84315;SDS011;74496;52.236;5.164;2024-02-14T12:12:57;4.07;;;3.42;;
84315;SDS011;74496;52.236;5.164;2024-02-14T12:15:25;4.83;;;3.93;;
84315;SDS011;74496;52.236;5.164;2024-02-14T12:17:54;5.13;;;3.55;;
84315;SDS011;74496;52.236;5.164;2024-02-14T12:20:21;4.30;;;4.00;;
84315;SDS011;74496;52.236;5.164;2024-02-14T12:22:49;6.00;;;4.25;;
84315;SDS011;74496;52.236;5.164;2024-02-14T12:25:17;5.45;;;4.95;;
84315;SDS011;74496;52.236;5.164;2024-02-14T12:27:49;4.70;;;4.30;;
84315;SDS011;74496;52.236;5.164;2024-02-14T12:30:16;4.72;;;4.20;;
84315;SDS011;74496;52.236;5.164;2024-02-14T12:32:44;3.97;;;3.67;;
84315;SDS011;74496;52.236;5.164;2024-02-14T12:35:11;3.88;;;3.58;;
84315;SDS011;74496;52.236;5.164;2024-02-14T12:37:38;4.93;;;3.63;;
84315;SDS011;74496;52.236;5.164;2024-02-14T12:40:05;4.50;;;3.77;;
84315;SDS011;74496;52.236;5.164;2024-02-14T12:42:34;3.60;;;3.40;;
84315;SDS011;74496;52.236;5.164;2024-02-14T12:45:01;3.88;;;3.58;;
84315;SDS011;74496;52.236;5.164;2024-02-14T12:47:27;4.60;;;2.97;;
84315;SDS011;74496;52.236;5.164;2024-02-14T12:49:57;3.28;;;3.08;;
84315;SDS011;74496;52.236;5.164;2024-02-14T12:52:24;2.83;;;2.63;;
84315;SDS011;74496;52.236;5.164;2024-02-14T12:54:51;2.90;;;2.60;;
84315;SDS011;74496;52.236;5.164;2024-02-14T12:57:18;3.10;;;2.90;;
84315;SDS011;74496;52.236;5.164;2024-02-14T12:59:48;3.45;;;2.85;;
84315;SDS011;74496;52.236;5.164;2024-02-14T13:02:15;2.60;;;2.40;;
84315;SDS011;74496;52.236;5.164;2024-02-14T13:04:42;2.30;;;2.20;;
84315;SDS011;74496;52.236;5.164;2024-02-14T13:07:09;5.15;;;2.13;;
84315;SDS011;74496;52.236;5.164;2024-02-14T13:09:36;2.47;;;2.30;;
84315;SDS011;74496;52.236;5.164;2024-02-14T13:12:03;2.75;;;2.55;;
84315;SDS011;74496;52.236;5.164;2024-02-14T13:14:32;2.33;;;2.22;;
84315;SDS011;74496;52.236;5.164;2024-02-14T13:17:00;2.47;;;2.37;;
84315;SDS011;74496;52.236;5.164;2024-02-14T13:19:27;2.22;;;2.13;;
84315;SDS011;74496;52.236;5.164;2024-02-14T13:21:54;2.47;;;2.28;;
84315;SDS011;74496;52.236;5.164;2024-02-14T13:24:20;2.78;;;2.58;;
84315;SDS011;74496;52.236;5.164;2024-02-14T13:26:47;2.92;;;2.72;;
84315;SDS011;74496;52.236;5.164;2024-02-14T13:29:14;2.57;;;2.37;;
84315;SDS011;74496;52.236;5.164;2024-02-14T13:31:42;3.00;;;2.67;;
84315;SDS011;74496;52.236;5.164;2024-02-14T13:34:10;3.22;;;2.90;;
84315;SDS011;74496;52.236;5.164;2024-02-14T13:36:37;2.55;;;2.45;;
84315;SDS011;74496;52.236;5.164;2024-02-14T13:39:04;3.53;;;2.95;;
84315;SDS011;74496;52.236;5.164;2024-02-14T13:41:30;3.00;;;2.80;;
84315;SDS011;74496;52.236;5.164;2024-02-14T13:43:57;2.60;;;2.45;;
84315;SDS011;74496;52.236;5.164;2024-02-14T13:46:24;2.30;;;2.20;;
84315;SDS011;74496;52.236;5.164;2024-02-14T13:48:51;2.25;;;1.90;;
84315;SDS011;74496;52.236;5.164;2024-02-14T13:51:19;3.22;;;2.40;;
84315;SDS011;74496;52.236;5.164;2024-02-14T13:53:46;2.80;;;2.60;;
84315;SDS011;74496;52.236;5.164;2024-02-14T13:56:14;2.58;;;2.40;;
84315;SDS011;74496;52.236;5.164;2024-02-14T13:58:41;2.83;;;2.65;;
84315;SDS011;74496;52.236;5.164;2024-02-14T14:01:09;2.47;;;2.38;;
84315;SDS011;74496;52.236;5.164;2024-02-14T14:03:36;2.55;;;2.35;;
84315;SDS011;74496;52.236;5.164;2024-02-14T14:06:03;2.30;;;2.20;;
84315;SDS011;74496;52.236;5.164;2024-02-14T14:08:34;2.15;;;2.05;;
84315;SDS011;74496;52.236;5.164;2024-02-14T14:11:02;2.45;;;2.25;;
84315;SDS011;74496;52.236;5.164;2024-02-14T14:13:28;2.35;;;2.15;;
84315;SDS011;74496;52.236;5.164;2024-02-14T14:15:56;2.70;;;2.55;;
84315;SDS011;74496;52.236;5.164;2024-02-14T14:18:23;3.13;;;2.30;;
84315;SDS011;74496;52.236;5.164;2024-02-14T14:20:50;2.75;;;2.60;;
84315;SDS011;74496;52.236;5.164;2024-02-14T14:23:21;3.00;;;2.80;;
84315;SDS011;74496;52.236;5.164;2024-02-14T14:25:49;3.65;;;2.47;;
84315;SDS011;74496;52.236;5.164;2024-02-14T14:28:16;2.80;;;2.60;;
84315;SDS011;74496;52.236;5.164;2024-02-14T14:30:44;2.80;;;2.60;;
84315;SDS011;74496;52.236;5.164;2024-02-14T14:33:10;2.40;;;2.30;;
84315;SDS011;74496;52.236;5.164;2024-02-14T14:35:39;3.33;;;3.03;;
84315;SDS011;74496;52.236;5.164;2024-02-14T14:38:05;2.95;;;2.85;;
84315;SDS011;74496;52.236;5.164;2024-02-14T14:40:32;2.47;;;2.38;;
84315;SDS011;74496;52.236;5.164;2024-02-14T14:43:00;2.80;;;2.60;;